Time;durP1;ratioP1;P1;durP2;ratioP2;P2;SDS_P1;SDS_P2;PMS_P1;PMS_P2;Temp;Humidity;BMP_temperature;BMP_pressure;BME280_temperature;BME280_humidity;BME280_pressure;Samples;Min_cycle;Max_cycle;Signal;HPM_P1;HPM_P2
2023/10/15 00:00:07;;;;;;;8.32;2.58;;;9.00;99.90;;;;;;5074914;28;20170;-52
2023/10/15 00:02:33;;;;;;;4.82;1.95;;;9.00;99.90;;;;;;5074536;28;20220;-52
2023/10/15 00:05:01;;;;;;;5.05;2.08;;;9.10;99.90;;;;;;5074567;28;20202;-52
2023/10/15 00:07:26;;;;;;;8.63;2.38;;;9.10;99.90;;;;;;5075236;28;20181;-52
2023/10/15 00:09:52;;;;;;;6.57;2.00;;;9.10;99.90;;;;;;5074529;28;20536;-52
2023/10/15 00:12:17;;;;;;;4.30;1.95;;;9.10;99.90;;;;;;5074661;28;20170;-52
2023/10/15 00:14:43;;;;;;;10.13;2.22;;;;;;;;;;5074359;28;20166;-52
2023/10/15 00:17:09;;;;;;;6.18;2.00;;;;;;;;;;5073936;28;20174;-51
2023/10/15 00:19:36;;;;;;;6.90;2.22;;;8.90;99.90;;;;;;5074051;28;20205;-53
2023/10/15 00:22:02;;;;;;;8.80;2.58;;;8.90;99.90;;;;;;5073958;28;20174;-54
2023/10/15 00:24:28;;;;;;;6.35;2.20;;;;;;;;;;5074124;28;20213;-52
2023/10/15 00:26:54;;;;;;;9.60;2.03;;;8.90;99.90;;;;;;5074646;28;20169;-52
2023/10/15 00:29:22;;;;;;;2.70;2.25;;;9.00;99.90;;;;;;5074394;28;20610;-53
2023/10/15 00:31:47;;;;;;;6.63;1.85;;;8.90;99.90;;;;;;5074335;28;20194;-52
2023/10/15 00:34:13;;;;;;;7.53;2.10;;;;;;;;;;5073916;28;20243;-52
2023/10/15 00:36:39;;;;;;;6.93;3.22;;;8.80;99.90;;;;;;5073977;28;20329;-52
2023/10/15 00:39:20;;;;;;;5.72;2.05;;;8.80;99.90;;;;;;5073934;28;20170;-52
2023/10/15 00:41:48;;;;;;;10.23;2.60;;;8.80;99.90;;;;;;5073353;28;20185;-52
2023/10/15 00:44:15;;;;;;;6.10;2.15;;;8.70;99.90;;;;;;5073481;28;20660;-52
2023/10/15 00:46:44;;;;;;;8.55;2.42;;;8.60;99.90;;;;;;5073606;28;20308;-52
2023/10/15 00:49:14;;;;;;;7.47;2.28;;;8.60;99.90;;;;;;5073950;28;20223;-52
2023/10/15 00:51:41;;;;;;;10.32;2.67;;;8.60;99.90;;;;;;5073620;28;20642;-54
2023/10/15 00:54:11;;;;;;;8.23;2.72;;;8.60;99.90;;;;;;5073584;28;20245;-53
2023/10/15 00:56:38;;;;;;;7.78;2.33;;;8.60;99.90;;;;;;5073578;28;20653;-52
2023/10/15 00:59:08;;;;;;;4.68;2.33;;;8.60;99.90;;;;;;5055591;28;20170;-53
2023/10/15 01:01:35;;;;;;;7.18;2.83;;;8.70;99.90;;;;;;5073815;28;20170;-52
2023/10/15 01:04:09;;;;;;;3.88;2.00;;;8.70;99.90;;;;;;5073616;28;20210;-53
2023/10/15 01:06:36;;;;;;;4.22;2.25;;;8.70;99.90;;;;;;5073678;28;20170;-51
2023/10/15 01:11:58;;;;;;;6.00;2.65;;;8.60;99.90;;;;;;5056350;28;20277;-51
2023/10/15 01:14:31;;;;;;;5.93;3.03;;;8.60;99.90;;;;;;5073711;28;20162;-50
2023/10/15 01:16:59;;;;;;;9.55;2.22;;;8.50;99.90;;;;;;5073872;28;20226;-51
2023/10/15 01:19:33;;;;;;;9.55;3.33;;;8.60;99.90;;;;;;5073883;28;20181;-51
2023/10/15 01:22:02;;;;;;;6.78;2.38;;;8.50;99.90;;;;;;5073134;28;20172;-50
2023/10/15 01:24:28;;;;;;;8.35;2.42;;;8.50;99.90;;;;;;5072947;28;20236;-51
2023/10/15 01:29:36;;;;;;;8.95;1.90;;;;;;;;;;5073215;28;20199;-51
2023/10/15 01:32:03;;;;;;;4.63;2.67;;;8.40;99.90;;;;;;5072996;28;20189;-51
2023/10/15 01:34:37;;;;;;;8.45;2.10;;;8.40;99.90;;;;;;5072953;28;20621;-52
2023/10/15 01:37:10;;;;;;;14.27;3.55;;;8.40;99.90;;;;;;5073101;28;20264;-53
2023/10/15 01:39:39;;;;;;;3.80;2.33;;;8.40;99.90;;;;;;5073083;28;20169;-52
2023/10/15 01:42:06;;;;;;;7.18;2.88;;;8.40;99.90;;;;;;5073023;28;20193;-51
2023/10/15 01:44:33;;;;;;;5.88;2.40;;;8.40;99.90;;;;;;5072522;28;20228;-52
2023/10/15 01:49:31;;;;;;;12.13;2.67;;;;;;;;;;5072784;28;20648;-52
2023/10/15 01:52:09;;;;;;;9.63;2.60;;;8.40;99.90;;;;;;5072940;28;20170;-52
2023/10/15 01:54:44;;;;;;;5.55;2.72;;;8.30;99.90;;;;;;5072225;28;20527;-53
2023/10/15 01:57:14;;;;;;;7.22;2.65;;;8.30;99.90;;;;;;5072514;28;20519;-53
2023/10/15 01:59:47;;;;;;;10.68;2.78;;;8.30;99.90;;;;;;5072630;28;20177;-53
2023/10/15 02:02:15;;;;;;;9.55;3.28;;;8.30;99.90;;;;;;5072221;28;20162;-52
2023/10/15 02:04:47;;;;;;;10.10;3.38;;;8.20;99.90;;;;;;5072490;28;20300;-51
2023/10/15 02:07:22;;;;;;;8.15;2.97;;;8.30;99.90;;;;;;5072188;28;20177;-53
2023/10/15 02:09:48;;;;;;;9.70;2.95;;;8.30;99.90;;;;;;5072385;28;20169;-52
2023/10/15 02:12:17;;;;;;;10.85;3.30;;;8.20;99.90;;;;;;5072096;28;20304;-52
2023/10/15 02:14:44;;;;;;;4.88;2.97;;;8.20;99.90;;;;;;5072178;28;20205;-51
2023/10/15 02:17:13;;;;;;;7.78;3.17;;;8.20;99.90;;;;;;5072001;28;20161;-51
2023/10/15 02:19:42;;;;;;;7.85;3.08;;;8.10;99.90;;;;;;5072084;28;20621;-52
2023/10/15 02:22:12;;;;;;;11.63;3.83;;;8.10;99.90;;;;;;5071965;28;20170;-52
2023/10/15 02:24:46;;;;;;;9.50;3.17;;;8.20;99.90;;;;;;5072043;28;20282;-51
2023/10/15 02:27:25;;;;;;;9.43;3.58;;;8.20;99.90;;;;;;5071936;28;20165;-52
2023/10/15 02:29:53;;;;;;;7.38;3.30;;;8.10;99.90;;;;;;5071844;28;20182;-56
2023/10/15 02:34:52;;;;;;;5.57;3.17;;;8.20;99.90;;;;;;5072088;28;20636;-51
2023/10/15 02:37:19;;;;;;;12.18;4.00;;;8.10;99.90;;;;;;5071799;28;20167;-53
2023/10/15 02:39:50;;;;;;;11.95;4.38;;;8.10;99.90;;;;;;5071729;28;20162;-52
2023/10/15 02:42:17;;;;;;;11.65;3.97;;;8.20;99.90;;;;;;5071872;28;20571;-51
2023/10/15 02:44:43;;;;;;;7.88;3.50;;;;;;;;;;5071529;28;20711;-52
2023/10/15 02:50:09;;;;;;;10.45;4.43;;;8.20;99.90;;;;;;5037775;28;20265;-51
2023/10/15 02:52:35;;;;;;;10.77;4.25;;;8.30;99.90;;;;;;5071881;28;20265;-51
2023/10/15 02:55:10;;;;;;;9.13;4.28;;;8.40;99.90;;;;;;5071714;28;20209;-51
2023/10/15 02:57:41;;;;;;;13.63;4.85;;;8.30;99.90;;;;;;5071546;28;20162;-51
2023/10/15 03:00:28;;;;;;;11.30;4.57;;;8.20;99.90;;;;;;5071360;28;20253;-51
2023/10/15 03:02:57;;;;;;;13.45;4.70;;;8.30;99.90;;;;;;5071850;28;20661;-51
2023/10/15 03:05:30;;;;;;;14.73;5.40;;;8.30;99.90;;;;;;5071155;28;20274;-51
2023/10/15 03:07:59;;;;;;;9.60;4.18;;;8.30;99.90;;;;;;5071725;28;20253;-51
2023/10/15 03:10:30;;;;;;;17.85;5.28;;;8.30;99.90;;;;;;5071776;28;20664;-51
2023/10/15 03:12:59;;;;;;;12.63;5.53;;;8.30;99.90;;;;;;5071962;28;20194;-52
2023/10/15 03:15:25;;;;;;;13.40;4.93;;;8.40;99.90;;;;;;5071990;28;20202;-52
2023/10/15 03:17:50;;;;;;;10.80;4.85;;;8.40;99.90;;;;;;5071250;28;20162;-54
2023/10/15 03:22:45;;;;;;;9.93;4.82;;;8.50;99.90;;;;;;5071237;28;20257;-52
2023/10/15 03:25:15;;;;;;;12.05;5.30;;;8.50;99.90;;;;;;5071149;28;20202;-53
2023/10/15 03:27:41;;;;;;;10.02;4.57;;;8.40;99.90;;;;;;5053171;28;20637;-52
2023/10/15 03:30:10;;;;;;;10.88;4.70;;;8.50;99.90;;;;;;5071206;28;20219;-51
2023/10/15 03:32:41;;;;;;;15.77;4.82;;;8.50;99.90;;;;;;5071128;28;20159;-53
2023/10/15 03:35:16;;;;;;;10.48;3.95;;;8.50;99.90;;;;;;5071146;28;20521;-52
2023/10/15 03:37:45;;;;;;;10.30;4.65;;;8.50;99.90;;;;;;5053115;28;20180;-51
2023/10/15 03:40:13;;;;;;;9.85;3.28;;;8.50;99.90;;;;;;5071055;28;20158;-52
2023/10/15 03:42:40;;;;;;;11.18;4.57;;;8.50;99.90;;;;;;5071055;28;20227;-56
2023/10/15 03:45:09;;;;;;;7.47;3.47;;;8.60;99.90;;;;;;5070957;28;20553;-51
2023/10/15 03:47:39;;;;;;;6.10;3.20;;;8.60;99.90;;;;;;5070901;28;20673;-53
2023/10/15 03:50:09;;;;;;;7.65;3.20;;;8.60;99.90;;;;;;5070987;28;20166;-52
2023/10/15 03:52:35;;;;;;;8.95;3.00;;;8.50;99.90;;;;;;5071225;28;20227;-52
2023/10/15 03:55:00;;;;;;;10.68;3.17;;;8.60;99.90;;;;;;5070860;28;20166;-55
2023/10/15 03:57:34;;;;;;;8.00;3.10;;;8.70;99.90;;;;;;5071333;28;20158;-51
2023/10/15 04:00:00;;;;;;;7.47;3.10;;;;;;;;;;5070766;28;20177;-51
2023/10/15 04:02:26;;;;;;;7.55;2.83;;;8.70;99.90;;;;;;5071269;28;20234;-50
2023/10/15 04:05:01;;;;;;;9.30;3.22;;;8.70;99.90;;;;;;5071394;28;20293;-55
2023/10/15 04:07:31;;;;;;;7.13;3.00;;;8.70;99.90;;;;;;5071327;28;20189;-53
2023/10/15 04:09:58;;;;;;;8.80;2.72;;;8.70;99.90;;;;;;5071161;28;20162;-57
2023/10/15 04:12:27;;;;;;;7.68;2.63;;;8.60;99.90;;;;;;5071066;28;20625;-50
2023/10/15 04:14:54;;;;;;;8.57;2.65;;;8.60;99.90;;;;;;5071251;28;20194;-51
2023/10/15 04:17:20;;;;;;;4.35;2.50;;;;;;;;;;5072388;28;20633;-50
2023/10/15 04:19:46;;;;;;;7.72;2.88;;;8.60;99.90;;;;;;5073971;28;20173;-51
2023/10/15 04:22:14;;;;;;;18.05;3.70;;;8.60;99.90;;;;;;5074245;28;20634;-51
2023/10/15 04:24:52;;;;;;;9.10;2.63;;;8.60;99.90;;;;;;5074330;28;20217;-51
2023/10/15 04:27:19;;;;;;;9.45;2.72;;;8.70;99.90;;;;;;5074255;28;20664;-51
2023/10/15 04:29:50;;;;;;;7.85;2.90;;;8.70;99.90;;;;;;5074375;28;20182;-51
2023/10/15 04:32:23;;;;;;;9.27;2.80;;;8.70;99.90;;;;;;5074011;28;20240;-50
2023/10/15 04:34:51;;;;;;;12.20;2.85;;;8.70;99.90;;;;;;5074145;28;20170;-51
2023/10/15 04:37:20;;;;;;;4.55;2.38;;;8.70;99.90;;;;;;5074151;28;20171;-51
2023/10/15 04:39:53;;;;;;;9.25;2.45;;;8.70;99.90;;;;;;5074132;28;20639;-50
2023/10/15 04:42:29;;;;;;;11.45;3.30;;;8.70;99.90;;;;;;5074003;28;20173;-50
2023/10/15 04:44:55;;;;;;;10.43;2.92;;;8.70;99.90;;;;;;5074369;28;20209;-51
2023/10/15 04:47:36;;;;;;;7.55;2.58;;;;;;;;;;5073638;28;20221;-51
2023/10/15 04:50:14;;;;;;;8.63;3.35;;;8.60;99.90;;;;;;5074001;28;20178;-50
2023/10/15 04:52:43;;;;;;;5.47;2.30;;;8.60;99.90;;;;;;5073844;28;20197;-51
2023/10/15 04:55:12;;;;;;;7.43;2.78;;;8.60;99.90;;;;;;5073828;28;20175;-50
2023/10/15 04:57:39;;;;;;;7.20;3.03;;;8.60;99.90;;;;;;5073561;28;20263;-51
2023/10/15 05:00:06;;;;;;;9.02;2.53;;;8.50;99.90;;;;;;5073813;28;20174;-51
2023/10/15 05:02:33;;;;;;;5.53;2.50;;;;;;;;;;5073536;28;20524;-51
2023/10/15 05:05:00;;;;;;;10.02;3.05;;;8.60;99.90;;;;;;5073352;28;20213;-51
2023/10/15 05:07:27;;;;;;;5.97;2.50;;;8.60;99.90;;;;;;5073962;28;20227;-50
2023/10/15 05:09:54;;;;;;;3.30;2.22;;;8.60;99.90;;;;;;5073896;28;20166;-51
2023/10/15 05:12:20;;;;;;;9.75;2.75;;;8.50;99.90;;;;;;5073287;28;20166;-51
2023/10/15 05:14:49;;;;;;;11.48;2.40;;;8.60;99.90;;;;;;5073155;28;20631;-51
2023/10/15 05:17:17;;;;;;;7.80;2.63;;;8.60;99.90;;;;;;5055181;28;20169;-51
2023/10/15 05:19:43;;;;;;;5.85;2.83;;;8.50;99.90;;;;;;5055172;28;20265;-51
2023/10/15 05:22:09;;;;;;;6.95;2.72;;;8.60;99.90;;;;;;5073480;28;20262;-51
2023/10/15 05:24:36;;;;;;;6.30;2.20;;;8.50;99.90;;;;;;5072967;28;20297;-51
2023/10/15 05:27:02;;;;;;;7.07;2.80;;;8.60;99.90;;;;;;5073092;28;20542;-51
2023/10/15 05:29:31;;;;;;;5.07;1.83;;;;;;;;;;5072297;28;20170;-51
2023/10/15 05:31:57;;;;;;;5.50;2.30;;;;;;;;;;5072788;28;20165;-51
2023/10/15 05:34:22;;;;;;;4.05;2.20;;;8.60;99.90;;;;;;5073199;28;20249;-51
2023/10/15 05:36:48;;;;;;;5.97;1.95;;;8.60;99.90;;;;;;5072786;28;20169;-50
2023/10/15 05:39:18;;;;;;;4.50;2.13;;;8.60;99.90;;;;;;5072681;28;20173;-50
2023/10/15 05:41:43;;;;;;;2.97;1.95;;;8.60;99.90;;;;;;5072699;28;20656;-51
2023/10/15 05:44:09;;;;;;;4.60;1.80;;;8.60;99.90;;;;;;5072613;28;20282;-51
2023/10/15 05:46:35;;;;;;;4.78;2.00;;;8.60;99.90;;;;;;5072660;28;20217;-51
2023/10/15 05:49:00;;;;;;;4.22;1.75;;;8.60;99.90;;;;;;5072546;28;20610;-51
2023/10/15 05:51:27;;;;;;;5.22;2.78;;;8.60;99.90;;;;;;5072779;28;20269;-51
2023/10/15 05:53:53;;;;;;;6.07;2.40;;;8.60;99.90;;;;;;5054946;28;20189;-51
2023/10/15 05:56:21;;;;;;;7.95;2.78;;;8.50;99.90;;;;;;5072376;28;20671;-52
2023/10/15 05:58:47;;;;;;;4.97;2.80;;;8.50;99.90;;;;;;5072662;28;20529;-51
2023/10/15 06:01:12;;;;;;;4.85;2.42;;;8.60;99.90;;;;;;5054722;28;20286;-51
2023/10/15 06:03:38;;;;;;;5.45;2.78;;;8.50;99.90;;;;;;5072270;28;20255;-51
2023/10/15 06:06:05;;;;;;;4.38;2.20;;;8.40;99.90;;;;;;5072269;28;20162;-51
2023/10/15 06:08:30;;;;;;;5.18;2.67;;;8.40;99.90;;;;;;5072193;28;20190;-51
2023/10/15 06:10:57;;;;;;;4.40;2.17;;;;;;;;;;5072387;28;20197;-51
2023/10/15 06:13:23;;;;;;;5.97;2.28;;;8.30;99.90;;;;;;5072745;28;20181;-51
2023/10/15 06:15:50;;;;;;;3.22;2.67;;;8.30;99.90;;;;;;5071963;28;20165;-50
2023/10/15 06:18:15;;;;;;;4.32;2.38;;;8.30;99.90;;;;;;5072075;28;20172;-50
2023/10/15 06:20:41;;;;;;;2.70;1.90;;;8.40;99.90;;;;;;5071889;28;20194;-53
2023/10/15 06:23:08;;;;;;;2.40;1.85;;;8.40;99.90;;;;;;5071941;28;20165;-52
2023/10/15 06:25:35;;;;;;;2.40;1.65;;;;;;;;;;5071876;28;20292;-51
2023/10/15 06:28:01;;;;;;;3.47;1.70;;;8.30;99.90;;;;;;5071949;28;20169;-52
2023/10/15 06:30:27;;;;;;;3.70;1.52;;;8.40;99.90;;;;;;5071800;28;20174;-52
2023/10/15 06:32:52;;;;;;;1.85;1.75;;;8.40;99.90;;;;;;5072254;28;20182;-51
2023/10/15 06:35:20;;;;;;;1.80;1.23;;;8.30;99.90;;;;;;5071695;28;20645;-51
2023/10/15 06:37:57;;;;;;;3.78;1.45;;;8.40;99.90;;;;;;5071815;28;20165;-51
2023/10/15 06:40:24;;;;;;;2.05;1.30;;;8.40;99.90;;;;;;5071380;28;20172;-51
2023/10/15 06:42:51;;;;;;;1.60;1.50;;;8.40;99.90;;;;;;5071896;28;20174;-51
2023/10/15 06:45:19;;;;;;;2.15;1.50;;;8.40;99.90;;;;;;5071696;28;20285;-52
2023/10/15 06:47:47;;;;;;;3.78;1.75;;;8.40;99.90;;;;;;5071224;28;20235;-52
2023/10/15 06:50:14;;;;;;;5.25;1.75;;;;;;;;;;5053183;28;20592;-51
2023/10/15 06:52:42;;;;;;;3.38;1.80;;;8.40;99.90;;;;;;5071276;28;20158;-52
2023/10/15 06:55:10;;;;;;;2.85;2.00;;;8.50;99.90;;;;;;5071411;28;20617;-51
2023/10/15 06:57:38;;;;;;;3.25;1.60;;;8.50;99.90;;;;;;5071527;28;20192;-52
2023/10/15 07:00:06;;;;;;;3.35;1.70;;;8.50;99.90;;;;;;5071470;28;20158;-51
2023/10/15 07:02:32;;;;;;;2.22;1.90;;;8.50;99.90;;;;;;5071245;28;20173;-51
2023/10/15 07:05:00;;;;;;;2.63;2.10;;;8.40;99.90;;;;;;5071093;28;20629;-52
2023/10/15 07:07:26;;;;;;;4.63;2.20;;;;;;;;;;5071575;28;20249;-52
2023/10/15 07:09:53;;;;;;;3.40;1.77;;;8.40;99.90;;;;;;5071714;28;20174;-51
2023/10/15 07:12:20;;;;;;;3.95;2.42;;;8.50;99.90;;;;;;5071254;28;20173;-51
2023/10/15 07:14:48;;;;;;;2.90;1.92;;;8.50;99.90;;;;;;5037960;28;20658;-52
2023/10/15 07:17:14;;;;;;;3.75;1.92;;;8.60;99.90;;;;;;5051038;28;20174;-52
2023/10/15 07:19:40;;;;;;;3.58;2.40;;;;;;;;;;5051133;28;20167;-52
2023/10/15 07:22:05;;;;;;;3.50;2.25;;;8.60;99.90;;;;;;5050917;28;20625;-52
2023/10/15 07:24:31;;;;;;;8.55;2.63;;;8.70;99.90;;;;;;5050900;28;20534;-51
2023/10/15 07:26:57;;;;;;;5.15;2.60;;;8.80;99.90;;;;;;5051040;28;20544;-51
2023/10/15 07:29:27;;;;;;;5.07;2.67;;;;;;;;;;5051365;28;20585;-52
2023/10/15 07:31:53;;;;;;;3.53;2.92;;;;;;;;;;5051093;28;20177;-52
2023/10/15 07:34:19;;;;;;;4.47;2.40;;;9.20;99.90;;;;;;5050529;28;20570;-51
2023/10/15 07:36:45;;;;;;;3.13;2.33;;;9.10;99.90;;;;;;5050903;28;20158;-51
2023/10/15 07:39:11;;;;;;;4.22;3.17;;;9.00;99.90;;;;;;5050902;28;20217;-51
2023/10/15 07:41:37;;;;;;;7.72;3.25;;;;;;;;;;5049603;28;20159;-51
2023/10/15 07:44:03;;;;;;;3.58;2.80;;;9.00;99.90;;;;;;5049985;28;20206;-51
2023/10/15 07:46:30;;;;;;;2.92;2.65;;;9.00;99.90;;;;;;5050325;28;20719;-51
2023/10/15 07:48:59;;;;;;;3.67;2.67;;;8.90;99.90;;;;;;5050806;28;20228;-52
2023/10/15 07:51:27;;;;;;;2.85;2.20;;;8.90;99.90;;;;;;5051551;28;20253;-51
2023/10/15 07:53:52;;;;;;;5.53;2.75;;;8.90;99.90;;;;;;5055037;28;20699;-57
2023/10/15 07:56:18;;;;;;;7.80;2.60;;;8.90;99.90;;;;;;5054799;28;20253;-56
2023/10/15 07:58:44;;;;;;;6.85;2.63;;;;;;;;;;5054734;28;20495;-56
2023/10/15 08:01:10;;;;;;;7.65;2.85;;;8.90;99.90;;;;;;5054657;28;20177;-56
2023/10/15 08:03:36;;;;;;;6.50;2.72;;;9.00;99.90;;;;;;5054868;28;20205;-56
2023/10/15 08:06:02;;;;;;;3.63;2.38;;;9.10;99.90;;;;;;5054592;28;20170;-57
2023/10/15 08:08:28;;;;;;;3.35;2.30;;;9.00;99.90;;;;;;5054417;28;20610;-57
2023/10/15 08:10:55;;;;;;;5.65;2.33;;;9.10;99.90;;;;;;5054595;28;20171;-56
2023/10/15 08:13:22;;;;;;;2.80;2.17;;;9.20;99.90;;;;;;5054552;28;20509;-57
2023/10/15 08:15:47;;;;;;;4.25;2.58;;;9.10;99.90;;;;;;5036744;28;20213;-56
2023/10/15 08:18:13;;;;;;;3.20;2.20;;;9.30;99.90;;;;;;5054461;28;20203;-56
2023/10/15 08:20:39;;;;;;;4.90;2.20;;;9.20;99.90;;;;;;5054132;28;20212;-56
2023/10/15 08:23:04;;;;;;;3.40;2.03;;;9.10;99.90;;;;;;5054389;28;20167;-56
2023/10/15 08:25:34;;;;;;;3.03;2.30;;;9.10;99.90;;;;;;5036055;28;20212;-55
2023/10/15 08:27:59;;;;;;;6.57;2.63;;;9.10;99.90;;;;;;5054478;28;20171;-57
2023/10/15 08:30:25;;;;;;;7.25;2.25;;;9.10;99.90;;;;;;5054333;28;20691;-56
2023/10/15 08:32:51;;;;;;;3.63;2.35;;;9.10;99.90;;;;;;5054382;28;20165;-56
2023/10/15 08:35:17;;;;;;;3.60;2.40;;;;;;;;;;5054054;28;20155;-57
2023/10/15 08:37:44;;;;;;;4.05;2.25;;;9.20;99.90;;;;;;5054214;28;20228;-57
2023/10/15 08:40:17;;;;;;;3.38;2.25;;;9.30;99.90;;;;;;5054044;28;20166;-58
2023/10/15 08:42:43;;;;;;;3.85;2.10;;;9.30;99.90;;;;;;5054172;28;20179;-58
2023/10/15 08:45:09;;;;;;;5.72;2.22;;;9.30;99.90;;;;;;5036180;28;20599;-52
2023/10/15 08:47:36;;;;;;;5.10;2.90;;;9.40;99.90;;;;;;5036056;28;20275;-52
2023/10/15 08:50:02;;;;;;;4.43;2.20;;;9.40;99.90;;;;;;5035995;28;20198;-52
2023/10/15 08:52:30;;;;;;;6.25;2.00;;;9.40;99.90;;;;;;5054200;28;20174;-56
2023/10/15 08:54:59;;;;;;;5.03;2.00;;;9.40;99.90;;;;;;5036461;28;20198;-55
2023/10/15 08:57:25;;;;;;;3.72;2.20;;;9.60;99.90;;;;;;5054178;28;20249;-57
2023/10/15 08:59:53;;;;;;;3.63;1.80;;;9.70;99.90;;;;;;5054037;28;20254;-55
2023/10/15 09:02:19;;;;;;;2.85;2.47;;;9.70;99.90;;;;;;5053568;28;20224;-57
2023/10/15 09:04:45;;;;;;;4.90;2.10;;;9.50;99.90;;;;;;5052515;28;20206;-56
2023/10/15 09:07:14;;;;;;;4.78;2.00;;;9.50;99.90;;;;;;5053615;28;20163;-54
2023/10/15 09:09:40;;;;;;;3.90;2.00;;;9.70;99.90;;;;;;5053263;28;20178;-56
2023/10/15 09:12:06;;;;;;;4.43;2.30;;;9.70;99.90;;;;;;5053251;28;20181;-57
2023/10/15 09:14:47;;;;;;;2.80;1.88;;;9.80;99.90;;;;;;5052971;28;20179;-56
2023/10/15 09:17:15;;;;;;;4.72;2.33;;;9.70;99.90;;;;;;5053262;28;20562;-52
2023/10/15 09:19:48;;;;;;;4.03;2.20;;;9.80;99.90;;;;;;5053113;28;20652;-51
2023/10/15 09:22:14;;;;;;;5.55;2.25;;;9.80;99.90;;;;;;5053490;28;20166;-52
2023/10/15 09:24:46;;;;;;;3.20;2.03;;;9.90;99.90;;;;;;5053081;28;20287;-51
2023/10/15 09:27:13;;;;;;;2.10;1.80;;;9.80;99.90;;;;;;5053145;28;20163;-52
2023/10/15 09:29:40;;;;;;;3.28;1.92;;;9.80;99.90;;;;;;5053149;28;20522;-51
2023/10/15 09:32:06;;;;;;;1.88;1.67;;;;;;;;;;5052921;28;20162;-51
2023/10/15 09:34:37;;;;;;;2.50;1.85;;;9.60;99.90;;;;;;5053177;28;20216;-51
2023/10/15 09:37:05;;;;;;;1.65;1.42;;;9.60;99.90;;;;;;5052799;28;20163;-51
2023/10/15 09:39:30;;;;;;;3.25;1.92;;;9.70;99.90;;;;;;5052743;28;20538;-51
2023/10/15 09:41:56;;;;;;;2.97;1.80;;;9.70;99.90;;;;;;5052834;28;20163;-51
2023/10/15 09:44:23;;;;;;;7.13;1.70;;;9.80;99.90;;;;;;5053031;28;20202;-51
2023/10/15 09:46:48;;;;;;;2.08;1.50;;;9.80;99.90;;;;;;5052183;28;20218;-51
2023/10/15 09:49:15;;;;;;;1.90;1.70;;;9.90;99.90;;;;;;5052882;28;20630;-55
2023/10/15 09:51:42;;;;;;;3.72;1.80;;;10.00;99.90;;;;;;5052574;28;20170;-56
2023/10/15 09:54:11;;;;;;;3.33;1.75;;;9.90;99.90;;;;;;5052630;28;20232;-56
2023/10/15 09:56:40;;;;;;;4.43;1.67;;;9.80;99.90;;;;;;5052514;28;20166;-56
2023/10/15 09:59:06;;;;;;;5.25;2.13;;;;;;;;;;5052379;28;20154;-53
2023/10/15 10:01:33;;;;;;;4.60;1.67;;;9.70;99.90;;;;;;5052200;28;20249;-51
2023/10/15 10:04:14;;;;;;;4.68;1.80;;;9.70;99.90;;;;;;5052395;28;20194;-51
2023/10/15 10:06:58;;;;;;;3.17;1.60;;;9.80;99.90;;;;;;5052466;28;20205;-51
2023/10/15 10:09:46;;;;;;;4.15;1.63;;;9.80;99.90;;;;;;5051296;28;20162;-52
2023/10/15 10:12:49;;;;;;;2.88;1.85;;;9.90;99.90;;;;;;5051911;28;20173;-55
2023/10/15 10:15:28;;;;;;;3.55;1.90;;;10.00;99.90;;;;;;5051961;28;20174;-54
2023/10/15 10:17:54;;;;;;;4.63;2.35;;;10.00;99.90;;;;;;5052382;28;20174;-54
2023/10/15 10:20:20;;;;;;;4.13;2.28;;;10.00;99.90;;;;;;5051376;28;20537;-50
2023/10/15 10:23:02;;;;;;;4.57;1.80;;;10.10;99.90;;;;;;5051487;28;20202;-54
2023/10/15 10:25:37;;;;;;;4.60;1.90;;;10.10;99.90;;;;;;5051686;28;20214;-55
2023/10/15 10:28:08;;;;;;;4.70;2.42;;;10.10;99.90;;;;;;5051515;28;20170;-55
2023/10/15 10:30:33;;;;;;;4.72;1.98;;;9.90;99.90;;;;;;5051243;28;20178;-53
2023/10/15 10:33:05;;;;;;;2.58;2.00;;;9.90;99.90;;;;;;5051733;28;20622;-51
2023/10/15 10:35:44;;;;;;;4.75;2.13;;;10.00;99.90;;;;;;5051394;28;20316;-51
2023/10/15 10:38:17;;;;;;;3.83;1.83;;;10.10;99.90;;;;;;5051136;28;20646;-51
2023/10/15 10:40:49;;;;;;;7.70;2.67;;;10.10;99.90;;;;;;5051509;28;20621;-51
2023/10/15 10:43:16;;;;;;;3.97;1.67;;;10.10;99.90;;;;;;5051304;28;20224;-52
2023/10/15 10:46:00;;;;;;;4.88;2.45;;;10.00;99.90;;;;;;5033456;28;20611;-51
2023/10/15 10:48:28;;;;;;;3.75;2.17;;;9.90;99.90;;;;;;5050834;28;20255;-52
2023/10/15 10:51:11;;;;;;;4.63;2.50;;;9.90;99.90;;;;;;5051552;28;20164;-52
2023/10/15 10:54:03;;;;;;;4.78;2.10;;;10.00;99.90;;;;;;5050849;28;20491;-51
2023/10/15 10:56:40;;;;;;;13.57;7.53;;;10.10;99.90;;;;;;5042301;28;20179;-49
2023/10/15 10:59:10;;;;;;;6.28;3.58;;;10.10;99.90;;;;;;5050943;28;20201;-51
2023/10/15 11:01:39;;;;;;;5.28;2.75;;;10.10;99.90;;;;;;5051193;28;20177;-51
2023/10/15 11:04:05;;;;;;;3.70;2.45;;;10.10;99.90;;;;;;5033204;28;20696;-53
2023/10/15 11:06:36;;;;;;;4.47;2.30;;;10.20;99.90;;;;;;5050719;28;20527;-51
2023/10/15 11:10:06;;;;;;;3.88;2.25;;;10.30;99.90;;;;;;5051393;28;20179;-51
2023/10/15 11:12:04;;;;;;;6.22;1.80;;;10.30;99.90;;;;;;5037765;28;20187;-52
2023/10/15 11:14:29;;;;;;;6.45;2.15;;;10.50;99.90;;;;;;5051298;28;20163;-51
2023/10/15 11:16:56;;;;;;;5.85;2.47;;;10.50;99.90;;;;;;5051449;28;20579;-51
2023/10/15 11:19:23;;;;;;;6.13;2.35;;;10.50;99.90;;;;;;5051665;28;20167;-51
2023/10/15 11:21:51;;;;;;;4.55;1.80;;;10.70;99.90;;;;;;5051565;28;20175;-56
2023/10/15 11:24:18;;;;;;;7.03;2.33;;;11.10;99.90;;;;;;5051193;28;20213;-52
2023/10/15 11:26:44;;;;;;;3.85;2.22;;;11.20;99.90;;;;;;5056056;28;20186;-51
2023/10/15 11:29:14;;;;;;;2.33;1.85;;;11.60;99.90;;;;;;5056089;28;20715;-51
2023/10/15 11:31:44;;;;;;;3.42;1.60;;;11.70;99.90;;;;;;5073954;28;20169;-51
2023/10/15 11:34:20;;;;;;;3.67;2.40;;;11.90;99.90;;;;;;5073436;28;20177;-51
2023/10/15 11:36:49;;;;;;;4.22;2.17;;;11.50;99.90;;;;;;5074235;28;20656;-51
2023/10/15 11:39:19;;;;;;;6.10;2.10;;;11.40;99.90;;;;;;5073109;28;20157;-52
2023/10/15 11:41:57;;;;;;;2.83;2.00;;;11.30;99.90;;;;;;5073612;28;20207;-52
2023/10/15 11:44:26;;;;;;;4.45;2.40;;;11.20;99.90;;;;;;5074162;28;20193;-52
2023/10/15 11:47:00;;;;;;;4.25;2.55;;;11.10;99.90;;;;;;5074021;28;20754;-52
2023/10/15 11:49:26;;;;;;;7.07;3.50;;;11.60;99.90;;;;;;5055928;28;20702;-57
2023/10/15 11:51:56;;;;;;;9.15;4.38;;;11.70;99.90;;;;;;5073974;28;20268;-50
2023/10/15 11:54:29;;;;;;;4.25;2.30;;;11.70;99.90;;;;;;5073712;28;20177;-51
2023/10/15 11:57:05;;;;;;;2.65;1.63;;;11.80;99.90;;;;;;5073736;28;20227;-52
2023/10/15 11:59:38;;;;;;;2.83;1.65;;;;;;;;;;5073205;28;20548;-52
2023/10/15 12:02:04;;;;;;;3.83;1.80;;;11.80;99.90;;;;;;5072528;28;20668;-52
2023/10/15 12:04:29;;;;;;;2.17;1.45;;;11.80;99.90;;;;;;5073234;28;20209;-51
2023/10/15 12:06:55;;;;;;;5.80;2.00;;;11.60;99.90;;;;;;5073340;28;20170;-52
2023/10/15 12:09:27;;;;;;;3.92;1.90;;;11.50;99.90;;;;;;5073662;28;20173;-52
2023/10/15 12:11:53;;;;;;;3.95;1.63;;;11.30;99.90;;;;;;5073904;28;20219;-51
2023/10/15 12:14:18;;;;;;;4.63;1.95;;;11.20;99.90;;;;;;5072959;28;20249;-52
2023/10/15 12:16:45;;;;;;;2.90;1.60;;;11.30;99.90;;;;;;5055304;28;20734;-51
2023/10/15 12:19:10;;;;;;;3.58;1.50;;;11.20;99.90;;;;;;5072712;28;20174;-51
2023/10/15 12:21:37;;;;;;;2.50;1.50;;;11.20;99.90;;;;;;5073033;28;20676;-51
2023/10/15 12:24:08;;;;;;;3.03;1.90;;;11.30;99.90;;;;;;5072300;28;20197;-50
2023/10/15 12:26:34;;;;;;;4.00;1.40;;;11.10;99.90;;;;;;5072941;28;20667;-52
2023/10/15 12:29:01;;;;;;;2.25;1.63;;;11.10;99.90;;;;;;5072443;28;20170;-51
2023/10/15 12:31:27;;;;;;;1.88;1.10;;;11.30;99.90;;;;;;5054857;28;20169;-51
2023/10/15 12:33:53;;;;;;;5.35;1.40;;;11.40;99.90;;;;;;5073435;28;20170;-52
2023/10/15 12:36:18;;;;;;;4.70;1.63;;;11.40;99.90;;;;;;5072812;28;20169;-51
2023/10/15 12:38:45;;;;;;;4.18;1.95;;;;;;;;;;5071146;28;20178;-51
2023/10/15 12:41:11;;;;;;;4.05;1.60;;;11.40;99.90;;;;;;5072577;28;20531;-51
2023/10/15 12:43:37;;;;;;;2.28;1.40;;;11.50;99.90;;;;;;5072804;28;20170;-52
2023/10/15 12:46:03;;;;;;;2.97;1.20;;;11.80;99.90;;;;;;5072567;28;20177;-50
2023/10/15 12:48:30;;;;;;;3.30;1.40;;;11.90;99.90;;;;;;5072491;28;20182;-50
2023/10/15 12:50:56;;;;;;;5.70;1.73;;;11.70;99.90;;;;;;5072323;28;20522;-51
2023/10/15 12:53:25;;;;;;;3.55;1.60;;;11.70;99.90;;;;;;5072578;28;20170;-51
2023/10/15 12:55:51;;;;;;;3.88;1.15;;;11.90;99.90;;;;;;5072866;28;20162;-53
2023/10/15 12:58:17;;;;;;;6.03;1.73;;;;;;;;;;5072093;28;20522;-51
2023/10/15 13:00:43;;;;;;;3.70;1.85;;;12.00;99.90;;;;;;5072681;28;20170;-51
2023/10/15 13:03:09;;;;;;;3.88;1.40;;;12.20;99.90;;;;;;5072024;28;20660;-51
2023/10/15 13:05:35;;;;;;;7.38;1.60;;;12.40;99.90;;;;;;5072083;28;20278;-52
2023/10/15 13:08:01;;;;;;;4.45;1.80;;;12.10;99.90;;;;;;5070578;28;20638;-53
2023/10/15 13:10:27;;;;;;;3.45;1.23;;;12.40;99.90;;;;;;5071243;28;20324;-50
2023/10/15 13:12:54;;;;;;;4.13;1.67;;;12.40;99.90;;;;;;5072583;28;20177;-55
2023/10/15 13:15:21;;;;;;;3.35;1.30;;;12.60;99.90;;;;;;5073922;28;20162;-51
2023/10/15 13:17:48;;;;;;;5.65;1.40;;;12.50;99.90;;;;;;5073129;28;20521;-52
2023/10/15 13:20:14;;;;;;;1.67;1.10;;;;;;;;;;5073077;28;20174;-51
2023/10/15 13:22:42;;;;;;;1.48;1.20;;;12.50;99.90;;;;;;5055077;28;20648;-52
2023/10/15 13:25:08;;;;;;;4.35;1.80;;;12.30;99.90;;;;;;5072962;28;20206;-51